Time;durP1;ratioP1;P1;durP2;ratioP2;P2;SDS_P1;SDS_P2;PMS_P1;PMS_P2;Temp;Humidity;BMP_temperature;BMP_pressure;BME280_temperature;BME280_humidity;BME280_pressure;Samples;Min_cycle;Max_cycle;Signal;HPM_P1;HPM_P2
2022/01/28 00:05:17;;;;;;;3.13;1.50;;;2.60;99.90;;;;;;9983400;29;20257;-78
2022/01/28 00:10:40;;;;;;;1.37;0.73;;;2.60;99.90;;;;;;9992849;29;20271;-78
2022/01/28 00:16:32;;;;;;;1.13;0.63;;;2.50;99.90;;;;;;10009046;29;20204;-78
2022/01/28 00:38:48;;;;;;;0.83;0.40;;;2.40;99.90;;;;;;9979428;29;20207;-77
2022/01/28 00:44:10;;;;;;;0.37;0.37;;;2.30;99.90;;;;;;10008008;29;20202;-77
2022/01/28 00:49:32;;;;;;;0.43;0.40;;;2.30;99.90;;;;;;9991739;29;20235;-78
2022/01/28 00:54:54;;;;;;;0.83;0.57;;;2.40;99.90;;;;;;9994179;29;20275;-78
2022/01/28 01:00:17;;;;;;;0.70;0.70;;;2.40;99.90;;;;;;10007402;29;20200;-78
2022/01/28 01:05:40;;;;;;;0.40;0.37;;;2.40;99.90;;;;;;9945390;29;20251;-78
2022/01/28 01:11:02;;;;;;;1.03;0.77;;;2.30;99.90;;;;;;9993171;29;20505;-78
2022/01/28 01:16:32;;;;;;;1.33;0.70;;;2.40;99.90;;;;;;9990904;29;20565;-79
2022/01/28 01:21:57;;;;;;;7.40;1.00;;;2.50;99.90;;;;;;9990786;29;20209;-78
2022/01/28 01:27:20;;;;;;;3.60;1.33;;;2.60;99.90;;;;;;10006805;29;20207;-77
2022/01/28 01:32:42;;;;;;;1.60;0.80;;;2.90;99.90;;;;;;10004683;29;20235;-78
2022/01/28 01:38:06;;;;;;;3.87;1.00;;;3.00;99.90;;;;;;9977752;29;20227;-77
2022/01/28 01:54:35;;;;;;;4.67;1.40;;;3.40;99.90;;;;;;9954509;29;20434;-78
2022/01/28 01:59:57;;;;;;;4.53;1.20;;;3.50;99.90;;;;;;9968013;29;20288;-78
2022/01/28 02:05:30;;;;;;;6.20;1.43;;;3.50;99.90;;;;;;9950748;29;20395;-78
2022/01/28 02:10:57;;;;;;;3.50;1.40;;;3.40;99.90;;;;;;9967171;29;20233;-78
2022/01/28 02:16:20;;;;;;;2.97;1.27;;;3.50;99.90;;;;;;9953694;29;20258;-78
2022/01/28 02:21:49;;;;;;;3.20;1.10;;;3.50;99.90;;;;;;9953953;29;20226;-78
2022/01/28 02:27:14;;;;;;;3.13;0.83;;;3.50;99.90;;;;;;9918657;30;20228;-78
2022/01/28 02:32:38;;;;;;;3.67;0.80;;;3.50;99.90;;;;;;9940526;29;20294;-78
2022/01/28 02:38:00;;;;;;;2.00;1.20;;;3.50;99.90;;;;;;9950318;29;20283;-78
2022/01/28 02:43:38;;;;;;;0.60;0.57;;;3.50;99.90;;;;;;9935382;29;20244;-77
2022/01/28 02:49:05;;;;;;;0.87;0.50;;;3.40;99.90;;;;;;9952903;29;20208;-78
2022/01/28 02:54:27;;;;;;;0.90;0.60;;;3.30;99.90;;;;;;9977555;29;20228;-77
2022/01/28 02:59:49;;;;;;;1.07;0.60;;;3.30;99.90;;;;;;9966466;29;20495;-78
2022/01/28 03:16:06;;;;;;;0.90;0.60;;;3.10;99.90;;;;;;9966049;29;20201;-78
2022/01/28 03:27:00;;;;;;;0.60;0.60;;;3.00;99.90;;;;;;9953007;29;20236;-79
2022/01/28 03:32:22;;;;;;;1.30;1.00;;;2.90;99.90;;;;;;9957893;29;20252;-78
2022/01/28 03:37:44;;;;;;;0.40;0.37;;;2.80;99.90;;;;;;9971985;29;20235;-78
2022/01/28 03:43:07;;;;;;;0.73;0.60;;;2.70;99.90;;;;;;9948404;29;20555;-77
2022/01/28 03:48:28;;;;;;;1.67;1.10;;;2.60;99.90;;;;;;9944033;29;20264;-78
2022/01/28 03:53:50;;;;;;;1.50;0.90;;;2.50;99.90;;;;;;9971717;29;20228;-78
2022/01/28 03:59:12;;;;;;;2.27;1.40;;;2.40;99.90;;;;;;9956371;29;20239;-78
2022/01/28 04:21:12;;;;;;;0.43;0.43;;;2.30;99.90;;;;;;9971566;29;20496;-78
2022/01/28 04:26:33;;;;;;;0.93;0.57;;;2.20;99.90;;;;;;9971231;29;20208;-78
2022/01/28 04:31:55;;;;;;;2.40;1.30;;;2.20;99.90;;;;;;9969777;29;20240;-78
2022/01/28 04:48:16;;;;;;;2.63;1.30;;;2.00;99.90;;;;;;10007783;29;20227;-78
2022/01/28 04:59:42;;;;;;;4.40;1.50;;;2.00;99.90;;;;;;10007825;29;20278;-78
2022/01/28 05:05:31;;;;;;;1.27;0.80;;;1.90;99.90;;;;;;10004907;29;20232;-79
2022/01/28 05:27:55;;;;;;;1.20;0.87;;;2.00;99.90;;;;;;9983072;29;20218;-79
2022/01/28 05:33:16;;;;;;;1.30;0.90;;;2.00;99.90;;;;;;9998413;29;20294;-77
2022/01/28 05:38:39;;;;;;;4.20;1.73;;;2.00;99.90;;;;;;10006665;29;20383;-77
2022/01/28 05:44:02;;;;;;;5.83;2.13;;;2.00;99.90;;;;;;10006578;29;20204;-79
2022/01/28 05:49:24;;;;;;;2.97;1.47;;;2.10;99.90;;;;;;10004062;29;20200;-79
2022/01/28 05:54:46;;;;;;;3.43;1.93;;;2.10;99.90;;;;;;9973296;29;20200;-79
2022/01/28 06:00:08;;;;;;;7.33;3.53;;;2.10;99.90;;;;;;9966947;29;20208;-78
2022/01/28 06:05:37;;;;;;;2.70;1.63;;;2.10;99.90;;;;;;9968111;29;20193;-78
2022/01/28 06:10:59;;;;;;;3.47;1.40;;;2.10;99.90;;;;;;9990630;29;20448;-78
2022/01/28 06:16:20;;;;;;;3.40;1.50;;;2.10;99.90;;;;;;10004834;29;20203;-79
2022/01/28 06:21:42;;;;;;;4.13;2.20;;;2.10;99.90;;;;;;10003783;29;20212;-78
2022/01/28 06:27:05;;;;;;;2.87;1.60;;;2.10;99.90;;;;;;10004117;29;20208;-78
2022/01/28 06:32:27;;;;;;;2.70;1.50;;;2.10;99.90;;;;;;9990884;29;20289;-78
2022/01/28 06:37:49;;;;;;;2.47;1.33;;;2.00;99.90;;;;;;10004751;29;20398;-79
2022/01/28 06:43:12;;;;;;;2.83;1.33;;;2.00;99.90;;;;;;9988130;29;20241;-78
2022/01/28 06:48:34;;;;;;;2.23;1.50;;;2.10;99.90;;;;;;9975220;29;20204;-78
2022/01/28 06:53:56;;;;;;;11.00;6.33;;;2.00;99.90;;;;;;9990010;29;20235;-78
2022/01/28 06:59:18;;;;;;;176.73;74.10;;;2.00;99.90;;;;;;9990024;29;20232;-78
2022/01/28 07:04:40;;;;;;;151.70;70.80;;;1.90;99.90;;;;;;10003789;29;20279;-78
2022/01/28 07:10:03;;;;;;;56.07;27.23;;;1.80;99.90;;;;;;9990436;29;20249;-77
2022/01/28 07:15:27;;;;;;;52.93;24.10;;;1.90;99.90;;;;;;9989875;29;20539;-79
2022/01/28 07:20:56;;;;;;;73.00;36.43;;;1.90;99.90;;;;;;9963844;29;20443;-78
2022/01/28 07:26:18;;;;;;;107.07;42.33;;;2.00;99.90;;;;;;9974226;29;20258;-78
2022/01/28 07:31:42;;;;;;;67.20;28.60;;;2.10;99.90;;;;;;9986833;29;20231;-78
2022/01/28 07:37:06;;;;;;;167.33;63.97;;;2.00;99.90;;;;;;9990031;29;20204;-78
2022/01/28 07:42:33;;;;;;;174.17;63.60;;;2.00;99.90;;;;;;9967493;29;20242;-78
2022/01/28 07:47:55;;;;;;;573.27;213.10;;;2.00;99.90;;;;;;9989130;29;20200;-78
2022/01/28 07:53:18;;;;;;;135.97;54.60;;;2.00;99.90;;;;;;10001306;29;20383;-78
2022/01/28 07:58:39;;;;;;;23.97;11.03;;;2.00;99.90;;;;;;10002586;29;20202;-78
2022/01/28 08:04:01;;;;;;;52.77;26.80;;;2.00;99.90;;;;;;9988890;29;20213;-79
2022/01/28 08:09:24;;;;;;;51.40;24.90;;;2.00;99.90;;;;;;9972516;29;20237;-78
2022/01/28 08:14:46;;;;;;;37.40;21.47;;;2.10;99.90;;;;;;10012117;29;20221;-78
2022/01/28 08:20:09;;;;;;;15.27;8.63;;;2.00;99.90;;;;;;9952477;29;20214;-78
2022/01/28 08:25:34;;;;;;;33.43;16.80;;;2.10;99.90;;;;;;9981943;29;20208;-78
2022/01/28 08:30:56;;;;;;;56.93;22.80;;;2.20;99.90;;;;;;9980376;29;20481;-78
2022/01/28 08:36:20;;;;;;;97.30;38.97;;;2.20;99.90;;;;;;10023936;29;20489;-79
2022/01/28 08:41:43;;;;;;;93.00;34.30;;;2.30;99.90;;;;;;9975483;29;20569;-78
2022/01/28 08:47:07;;;;;;;76.73;32.83;;;2.40;99.90;;;;;;9986572;29;20284;-79
2022/01/28 08:52:28;;;;;;;125.17;48.37;;;2.40;99.90;;;;;;9965645;29;20299;-79
2022/01/28 08:57:51;;;;;;;25.97;11.17;;;2.40;99.90;;;;;;9938736;29;20295;-78
2022/01/28 09:03:15;;;;;;;37.43;17.00;;;2.50;99.90;;;;;;9935796;29;20211;-81
2022/01/28 09:08:39;;;;;;;47.47;18.50;;;2.50;99.90;;;;;;9951924;29;20279;-79
2022/01/28 09:14:01;;;;;;;83.43;33.40;;;2.50;99.90;;;;;;9938955;29;20271;-86
2022/01/28 09:19:23;;;;;;;81.17;35.10;;;2.50;99.90;;;;;;9924046;29;20218;-80
2022/01/28 09:24:45;;;;;;;48.50;20.43;;;2.40;99.90;;;;;;9927044;29;20209;-82
2022/01/28 09:30:08;;;;;;;30.57;12.77;;;2.60;99.90;;;;;;9912871;29;20527;-78
2022/01/28 09:35:31;;;;;;;28.77;15.70;;;2.70;99.90;;;;;;9923117;29;20455;-82
2022/01/28 09:40:55;;;;;;;14.47;6.37;;;2.80;99.90;;;;;;9936667;29;20276;-82
2022/01/28 09:46:18;;;;;;;11.17;6.50;;;2.70;99.90;;;;;;9915485;29;20491;-83
2022/01/28 09:51:40;;;;;;;13.70;6.70;;;2.60;99.90;;;;;;9923077;30;20234;-83
2022/01/28 09:57:03;;;;;;;7.03;3.30;;;2.70;99.90;;;;;;9899062;30;20208;-85
2022/01/28 10:03:01;;;;;;;10.63;6.93;;;2.80;99.90;;;;;;9891933;30;20534;-81
2022/01/28 10:08:25;;;;;;;13.93;8.20;;;2.80;99.90;;;;;;9788078;30;20243;-81
2022/01/28 10:13:53;;;;;;;12.23;6.37;;;2.90;99.90;;;;;;9853640;30;20250;-82
2022/01/28 10:19:15;;;;;;;10.30;5.57;;;2.90;99.90;;;;;;9820676;30;20276;-79
2022/01/28 10:24:38;;;;;;;11.37;4.80;;;3.10;99.90;;;;;;9845700;30;20414;-79
2022/01/28 10:30:05;;;;;;;7.70;3.50;;;3.20;99.90;;;;;;9846917;30;20548;-81
2022/01/28 10:35:31;;;;;;;10.50;3.57;;;3.50;99.90;;;;;;9828909;30;20219;-81
2022/01/28 10:41:26;;;;;;;8.43;2.80;;;3.60;99.90;;;;;;9816283;30;20321;-80
2022/01/28 10:46:59;;;;;;;12.63;5.53;;;3.60;99.90;;;;;;9794769;30;20699;-82
2022/01/28 10:52:36;;;;;;;10.37;5.27;;;3.60;99.90;;;;;;9805757;30;20265;-80
2022/01/28 10:58:03;;;;;;;12.30;6.53;;;3.60;99.90;;;;;;9783505;30;20290;-82
2022/01/28 11:03:27;;;;;;;6.00;3.13;;;3.40;99.90;;;;;;9798425;30;20219;-82
2022/01/28 11:08:50;;;;;;;9.37;3.17;;;3.20;99.90;;;;;;9834439;30;20232;-81
2022/01/28 11:14:18;;;;;;;10.07;3.70;;;3.20;99.90;;;;;;9834721;30;20258;-81
2022/01/28 11:19:42;;;;;;;9.63;2.80;;;3.20;99.90;;;;;;9890973;29;20221;-82
2022/01/28 11:25:39;;;;;;;7.10;3.13;;;3.30;99.90;;;;;;9960588;29;20486;-81
2022/01/28 11:31:01;;;;;;;8.57;3.17;;;3.60;99.90;;;;;;9892416;30;20580;-81
2022/01/28 11:36:31;;;;;;;5.90;2.87;;;3.70;99.90;;;;;;9921763;30;20541;-80
2022/01/28 11:42:07;;;;;;;5.40;2.20;;;3.50;99.90;;;;;;9904397;30;20254;-78
2022/01/28 11:47:38;;;;;;;11.27;4.00;;;3.30;99.90;;;;;;9907514;29;20331;-80
2022/01/28 11:53:01;;;;;;;7.67;2.53;;;3.00;99.90;;;;;;9909929;29;20243;-81
2022/01/28 11:58:52;;;;;;;9.73;4.77;;;2.90;99.90;;;;;;9902550;30;20221;-81
2022/01/28 12:04:24;;;;;;;10.30;4.17;;;2.80;99.90;;;;;;9944924;29;20212;-80
2022/01/28 12:09:52;;;;;;;6.00;3.20;;;2.80;99.90;;;;;;9966409;29;20223;-81
2022/01/28 12:15:19;;;;;;;13.13;4.63;;;2.70;99.90;;;;;;9977693;29;20222;-81
2022/01/28 12:20:48;;;;;;;13.43;5.43;;;2.60;99.90;;;;;;9956968;29;20247;-83
2022/01/28 12:26:14;;;;;;;17.23;8.97;;;2.70;99.90;;;;;;9948680;29;20212;-80
2022/01/28 12:31:36;;;;;;;9.50;4.60;;;2.70;99.90;;;;;;9957506;29;20237;-79
2022/01/28 12:36:59;;;;;;;11.70;5.03;;;2.60;99.90;;;;;;9979083;29;20199;-80
2022/01/28 12:42:25;;;;;;;11.30;3.73;;;2.70;99.90;;;;;;9980061;29;20550;-81
2022/01/28 12:47:47;;;;;;;7.60;3.23;;;2.70;99.90;;;;;;9957161;29;20209;-81
2022/01/28 12:53:09;;;;;;;9.27;3.87;;;2.80;99.90;;;;;;9928300;29;20299;-81
2022/01/28 12:58:52;;;;;;;11.00;5.53;;;2.70;99.90;;;;;;9939330;29;20263;-81
2022/01/28 13:04:16;;;;;;;20.27;11.03;;;2.70;99.90;;;;;;9952328;29;20212;-81
2022/01/28 13:09:39;;;;;;;10.90;4.13;;;2.70;99.90;;;;;;9939018;29;20223;-81
2022/01/28 13:15:10;;;;;;;13.53;4.93;;;2.60;99.90;;;;;;9921349;29;20236;-83
2022/01/28 13:20:35;;;;;;;19.03;8.27;;;2.60;99.90;;;;;;9951679;29;20217;-82
2022/01/28 13:26:05;;;;;;;10.43;5.00;;;2.50;99.90;;;;;;9954277;29;20277;-81
2022/01/28 13:31:27;;;;;;;14.10;4.13;;;2.50;99.90;;;;;;9938410;29;20547;-81
2022/01/28 13:36:53;;;;;;;8.40;4.30;;;2.40;99.90;;;;;;9948397;29;20204;-81
2022/01/28 13:42:17;;;;;;;8.20;3.77;;;2.30;99.90;;;;;;9933228;29;20240;-82
2022/01/28 13:47:53;;;;;;;12.20;6.13;;;2.20;99.90;;;;;;9890059;29;20217;-81
2022/01/28 13:58:53;;;;;;;15.20;6.93;;;2.10;99.90;;;;;;9932657;29;20220;-80
2022/01/28 14:04:35;;;;;;;20.33;8.03;;;2.10;99.90;;;;;;9936485;29;20213;-81
2022/01/28 14:10:00;;;;;;;11.97;4.10;;;2.00;99.90;;;;;;9945704;29;20225;-81
2022/01/28 14:15:33;;;;;;;10.50;3.30;;;2.00;99.90;;;;;;9948488;29;20236;-81
2022/01/28 14:20:56;;;;;;;19.70;7.07;;;2.00;99.90;;;;;;9925518;29;20439;-79
2022/01/28 14:26:20;;;;;;;16.03;4.70;;;2.00;99.90;;;;;;9934424;29;20271;-80
2022/01/28 14:31:41;;;;;;;16.77;5.30;;;2.00;99.90;;;;;;9924761;29;20235;-80
2022/01/28 14:37:05;;;;;;;12.93;4.30;;;2.00;99.90;;;;;;9971352;29;20212;-82
2022/01/28 14:42:27;;;;;;;10.90;4.13;;;1.90;99.90;;;;;;9958879;29;20270;-84
2022/01/28 14:47:49;;;;;;;10.40;2.73;;;1.90;99.90;;;;;;9977914;29;20236;-82
2022/01/28 14:53:11;;;;;;;15.77;5.87;;;1.90;99.90;;;;;;9952953;29;20229;-79
2022/01/28 14:58:32;;;;;;;9.30;3.57;;;1.90;99.90;;;;;;9910628;29;20203;-79
2022/01/28 15:03:54;;;;;;;6.30;2.07;;;1.90;99.90;;;;;;9920329;29;20233;-80
2022/01/28 15:09:18;;;;;;;7.63;3.30;;;1.90;99.90;;;;;;9916416;29;20269;-79
2022/01/28 15:14:40;;;;;;;7.90;3.27;;;1.90;99.90;;;;;;9963122;29;20244;-83
2022/01/28 15:20:02;;;;;;;12.20;3.13;;;1.90;99.90;;;;;;9921005;29;20231;-79
2022/01/28 15:25:24;;;;;;;8.60;4.10;;;2.00;99.90;;;;;;9933344;29;20202;-80
2022/01/28 15:36:35;;;;;;;12.70;6.67;;;1.90;99.90;;;;;;9817425;30;20272;-81
2022/01/28 15:41:57;;;;;;;5.23;2.93;;;1.80;99.90;;;;;;9813058;30;20257;-81
2022/01/28 15:47:19;;;;;;;13.80;4.33;;;1.70;99.90;;;;;;9838933;30;20242;-80
2022/01/28 15:52:43;;;;;;;16.67;6.23;;;1.70;99.90;;;;;;9848354;30;20243;-90
2022/01/28 15:58:05;;;;;;;15.83;4.40;;;1.70;99.90;;;;;;9855462;30;20258;-81
2022/01/28 16:03:27;;;;;;;15.30;4.87;;;1.70;99.90;;;;;;9839411;30;20479;-87
2022/01/28 16:08:49;;;;;;;10.27;3.93;;;1.80;99.90;;;;;;9841110;30;20396;-80
2022/01/28 16:14:17;;;;;;;13.07;5.20;;;1.80;99.90;;;;;;9980437;29;20466;-80
2022/01/28 16:19:40;;;;;;;16.67;5.83;;;1.80;99.90;;;;;;9974050;29;20208;-80
2022/01/28 16:25:02;;;;;;;13.73;5.93;;;1.80;99.90;;;;;;9995194;29;20279;-80
2022/01/28 16:30:24;;;;;;;10.57;4.73;;;1.80;99.90;;;;;;10005309;29;20196;-79
2022/01/28 16:35:46;;;;;;;9.73;4.27;;;1.80;99.90;;;;;;10003298;29;20215;-80
2022/01/28 16:41:11;;;;;;;7.10;3.90;;;1.70;99.90;;;;;;9990669;29;20438;-80
2022/01/28 16:46:33;;;;;;;10.27;3.20;;;1.60;99.90;;;;;;9993527;29;20433;-79
2022/01/28 16:51:55;;;;;;;13.20;5.60;;;1.60;99.90;;;;;;9994744;29;20255;-79
2022/01/28 16:57:18;;;;;;;23.57;9.77;;;1.50;99.90;;;;;;9966661;29;20199;-79
2022/01/28 17:02:40;;;;;;;24.60;8.80;;;1.50;99.90;;;;;;9978959;29;20273;-80
2022/01/28 17:08:03;;;;;;;22.07;8.57;;;1.40;99.90;;;;;;9981224;29;20208;-81
2022/01/28 17:13:26;;;;;;;29.83;14.40;;;1.40;99.90;;;;;;9993272;29;20235;-80
2022/01/28 17:18:47;;;;;;;27.97;11.57;;;1.40;99.90;;;;;;9979180;29;20226;-80
2022/01/28 17:24:09;;;;;;;20.07;9.90;;;1.40;99.90;;;;;;9993502;29;20211;-80
2022/01/28 17:29:42;;;;;;;37.33;14.37;;;1.40;99.90;;;;;;10004665;29;20204;-80
2022/01/28 17:35:09;;;;;;;42.57;16.37;;;1.30;99.90;;;;;;9993074;29;20328;-80
2022/01/28 17:40:34;;;;;;;39.93;16.97;;;1.30;99.90;;;;;;10005017;29;20236;-81
2022/01/28 17:45:56;;;;;;;32.50;13.43;;;1.40;99.90;;;;;;10005251;29;20191;-80
2022/01/28 17:51:18;;;;;;;18.57;9.47;;;1.30;99.90;;;;;;10004996;29;20234;-80
2022/01/28 17:56:40;;;;;;;18.03;8.50;;;1.30;99.90;;;;;;9992020;29;20200;-81
2022/01/28 18:02:02;;;;;;;15.03;7.60;;;1.30;99.90;;;;;;9978192;29;20502;-80
2022/01/28 18:07:24;;;;;;;15.70;7.50;;;1.20;99.90;;;;;;9992014;29;20253;-81
2022/01/28 18:12:47;;;;;;;26.60;11.50;;;1.20;99.90;;;;;;9998873;29;20250;-81
2022/01/28 18:18:11;;;;;;;23.40;10.40;;;1.20;99.90;;;;;;10004271;29;20224;-81
2022/01/28 18:23:32;;;;;;;19.80;8.23;;;1.10;99.90;;;;;;10005239;29;20199;-79
2022/01/28 18:28:55;;;;;;;30.07;13.00;;;1.10;99.90;;;;;;9993407;29;20287;-80
2022/01/28 18:34:17;;;;;;;17.70;8.73;;;1.00;99.90;;;;;;9976139;29;20247;-81
2022/01/28 18:39:39;;;;;;;15.97;7.23;;;1.00;99.90;;;;;;9968597;29;20434;-81
2022/01/28 18:45:04;;;;;;;20.03;9.13;;;1.00;99.90;;;;;;9938447;29;20236;-80
2022/01/28 18:50:29;;;;;;;20.67;8.20;;;0.90;99.90;;;;;;9937936;29;20248;-81
2022/01/28 18:55:51;;;;;;;24.43;9.13;;;0.90;99.90;;;;;;9937716;29;20422;-81
2022/01/28 19:01:13;;;;;;;16.30;6.60;;;0.80;99.90;;;;;;9953045;29;20203;-81
2022/01/28 19:06:35;;;;;;;19.40;7.40;;;0.80;99.90;;;;;;9953024;29;20204;-81
2022/01/28 19:11:58;;;;;;;18.43;8.17;;;0.80;99.90;;;;;;9949768;29;20234;-80
2022/01/28 19:17:20;;;;;;;13.43;6.13;;;0.80;99.90;;;;;;9924975;29;20261;-81
2022/01/28 19:22:43;;;;;;;16.33;5.93;;;0.70;99.90;;;;;;9888007;30;20208;-81
2022/01/28 19:28:07;;;;;;;40.30;15.23;;;0.70;99.90;;;;;;9912219;29;20320;-80
2022/01/28 19:33:29;;;;;;;47.23;15.70;;;0.70;99.90;;;;;;9926161;29;20264;-80
2022/01/28 19:38:51;;;;;;;36.50;14.07;;;0.70;99.90;;;;;;9957937;29;20200;-81
2022/01/28 19:44:14;;;;;;;18.87;8.03;;;0.70;99.90;;;;;;10003652;29;20208;-80
2022/01/28 19:49:40;;;;;;;21.03;6.20;;;0.60;99.90;;;;;;9962334;29;20229;-80
2022/01/28 19:55:02;;;;;;;27.70;11.20;;;0.60;99.90;;;;;;9961952;29;20241;-81
2022/01/28 20:00:24;;;;;;;17.17;6.00;;;0.60;99.90;;;;;;9955698;29;20208;-81
2022/01/28 20:05:47;;;;;;;16.93;5.63;;;0.60;99.90;;;;;;9951752;29;20204;-80
2022/01/28 20:11:08;;;;;;;15.57;6.10;;;0.60;99.90;;;;;;9980663;29;20211;-79
2022/01/28 20:16:31;;;;;;;9.63;4.17;;;0.60;99.90;;;;;;9980328;29;20400;-80
2022/01/28 20:21:53;;;;;;;7.07;3.40;;;0.70;99.90;;;;;;9943089;29;20246;-80
2022/01/28 20:27:15;;;;;;;12.27;4.37;;;0.70;99.90;;;;;;9965809;29;20483;-80
2022/01/28 20:32:40;;;;;;;10.10;4.40;;;0.60;99.90;;;;;;9967407;29;20227;-81
2022/01/28 20:38:04;;;;;;;11.13;4.07;;;0.60;99.90;;;;;;9978583;29;20199;-81
2022/01/28 20:43:27;;;;;;;19.30;7.07;;;0.60;99.90;;;;;;9979226;29;20259;-79
2022/01/28 20:48:50;;;;;;;18.47;7.10;;;0.60;99.90;;;;;;9994503;29;20201;-81
2022/01/28 20:54:13;;;;;;;10.63;5.60;;;0.60;99.90;;;;;;9979693;29;20238;-81
2022/01/28 20:59:35;;;;;;;8.33;3.93;;;0.50;99.90;;;;;;9978644;29;20220;-81
2022/01/28 21:04:57;;;;;;;11.93;5.43;;;0.50;99.90;;;;;;9991458;29;20203;-80
2022/01/28 21:10:22;;;;;;;14.67;6.13;;;0.50;99.90;;;;;;9981326;29;20234;-80
2022/01/28 21:15:45;;;;;;;22.10;7.40;;;0.50;99.90;;;;;;9978404;29;20302;-80
2022/01/28 21:21:07;;;;;;;59.07;20.60;;;0.50;99.90;;;;;;9965702;29;20208;-79
2022/01/28 21:26:29;;;;;;;33.87;12.20;;;0.40;99.90;;;;;;9990770;29;20399;-80
2022/01/28 21:31:51;;;;;;;66.40;26.07;;;0.40;99.90;;;;;;9977990;29;20568;-80
2022/01/28 21:37:14;;;;;;;41.80;14.27;;;0.40;99.90;;;;;;9978114;29;20204;-80
2022/01/28 21:42:36;;;;;;;54.37;19.97;;;0.40;99.90;;;;;;9974316;29;20594;-79
2022/01/28 21:47:58;;;;;;;46.77;17.77;;;0.40;99.90;;;;;;9993265;29;20204;-82
2022/01/28 21:53:21;;;;;;;43.30;16.53;;;0.40;99.90;;;;;;9992835;29;20239;-81
2022/01/28 21:58:43;;;;;;;43.27;19.87;;;0.40;99.90;;;;;;9979851;29;20207;-82
2022/01/28 22:04:05;;;;;;;26.67;10.73;;;0.40;99.90;;;;;;9969600;29;20211;-81
2022/01/28 22:09:27;;;;;;;15.10;7.40;;;0.40;99.90;;;;;;9966283;29;20512;-81
2022/01/28 22:14:49;;;;;;;17.97;7.07;;;0.40;99.90;;;;;;10004391;29;20243;-81
2022/01/28 22:20:12;;;;;;;23.17;8.17;;;0.30;99.90;;;;;;9991560;29;20210;-82
2022/01/28 22:25:35;;;;;;;19.97;7.53;;;0.30;99.90;;;;;;10004324;29;20507;-82
2022/01/28 22:30:56;;;;;;;18.73;7.70;;;0.30;99.90;;;;;;9954323;29;20207;-81
2022/01/28 22:36:18;;;;;;;24.37;9.47;;;0.30;99.90;;;;;;9967879;29;20277;-81
2022/01/28 22:41:40;;;;;;;24.80;9.40;;;0.30;99.90;;;;;;9945912;29;20240;-81
2022/01/28 22:47:03;;;;;;;20.97;9.03;;;0.30;99.90;;;;;;9929718;30;20254;-81
2022/01/28 22:52:25;;;;;;;17.87;6.87;;;0.30;99.90;;;;;;9917811;30;20241;-79
2022/01/28 22:57:46;;;;;;;11.47;4.30;;;0.30;99.90;;;;;;9929840;29;20235;-81
2022/01/28 23:03:09;;;;;;;7.33;3.27;;;0.30;99.90;;;;;;9967201;29;20254;-79
2022/01/28 23:08:30;;;;;;;6.80;3.10;;;0.30;99.90;;;;;;9937809;29;20257;-80
2022/01/28 23:13:52;;;;;;;4.87;2.70;;;0.30;99.90;;;;;;9946642;29;20403;-80
2022/01/28 23:19:14;;;;;;;10.77;4.07;;;0.30;99.90;;;;;;9952247;29;20255;-80
2022/01/28 23:24:36;;;;;;;7.57;4.87;;;0.20;99.90;;;;;;9977845;29;20237;-81
2022/01/28 23:29:58;;;;;;;11.67;4.30;;;0.20;99.90;;;;;;9958424;29;20424;-81
2022/01/28 23:35:21;;;;;;;8.27;3.27;;;0.20;99.90;;;;;;9924950;29;20280;-80
2022/01/28 23:40:43;;;;;;;8.33;3.47;;;0.20;99.90;;;;;;9964236;29;20269;-81
2022/01/28 23:46:05;;;;;;;6.73;3.00;;;0.20;99.90;;;;;;9984320;29;20273;-80
2022/01/28 23:51:27;;;;;;;8.83;3.83;;;0.10;99.90;;;;;;9984331;29;20211;-80
2022/01/28 23:56:50;;;;;;;8.07;2.80;;;0.10;99.90;;;;;;9980802;29;20271;-80
